createdAt,value
2018-12-19T00:01:12.394Z,101446.00
2018-12-19T00:03:40.641Z,101444.00
2018-12-19T00:06:08.857Z,101440.00
2018-12-19T00:08:37.825Z,101444.00
2018-12-19T00:11:06.088Z,101436.00
2018-12-19T00:13:34.255Z,101427.00
2018-12-19T00:16:02.505Z,101434.00
2018-12-19T00:18:30.702Z,101427.00
2018-12-19T00:20:58.909Z,101423.00
2018-12-19T00:23:27.083Z,101419.00
2018-12-19T00:25:55.305Z,101419.00
2018-12-19T00:28:23.476Z,101412.00
2018-12-19T00:30:51.634Z,101413.00
2018-12-19T00:33:19.887Z,101413.00
2018-12-19T00:35:48.064Z,101407.00
2018-12-19T00:38:16.231Z,101413.00
2018-12-19T00:40:44.437Z,101410.00
2018-12-19T00:43:12.608Z,101411.00
2018-12-19T00:45:40.810Z,101413.00
2018-12-19T00:48:08.981Z,101419.00
2018-12-19T00:50:37.216Z,101415.00
2018-12-19T00:53:05.395Z,101410.00
2018-12-19T00:55:33.663Z,101425.00
2018-12-19T00:58:01.829Z,101415.00
2018-12-19T01:00:30.041Z,101419.00
2018-12-19T01:02:58.247Z,101425.00
2018-12-19T01:05:26.413Z,101423.00
2018-12-19T01:07:54.617Z,101413.00
2018-12-19T01:10:22.955Z,101415.00
2018-12-19T01:12:51.181Z,101407.00
2018-12-19T01:15:19.356Z,101410.00
2018-12-19T01:17:47.527Z,101400.00
2018-12-19T01:20:15.921Z,101399.00
2018-12-19T01:22:44.141Z,101402.00
2018-12-19T01:25:12.369Z,101399.00
2018-12-19T01:27:40.587Z,101404.00
2018-12-19T01:30:08.834Z,101399.00
2018-12-19T01:32:37.007Z,101397.00
2018-12-19T01:35:05.531Z,101402.00
2018-12-19T01:37:35.463Z,101394.00
2018-12-19T01:40:07.150Z,101387.00
2018-12-19T01:42:35.403Z,101382.00
2018-12-19T01:45:04.942Z,101377.00
2018-12-19T01:47:33.121Z,101372.00
2018-12-19T01:50:01.354Z,101366.00
2018-12-19T01:52:29.540Z,101373.00
2018-12-19T01:54:57.740Z,101372.00
2018-12-19T01:57:25.907Z,101377.00
2018-12-19T01:59:54.115Z,101377.00
2018-12-19T02:02:22.276Z,101362.00
2018-12-19T02:04:50.457Z,101363.00
2018-12-19T02:07:18.646Z,101348.00
2018-12-19T02:09:46.839Z,101333.00
2018-12-19T02:12:15.031Z,101331.00
2018-12-19T02:14:43.345Z,101329.00
2018-12-19T02:17:11.772Z,101330.00
2018-12-19T02:19:39.949Z,101325.00
2018-12-19T02:22:08.216Z,101317.00
2018-12-19T02:24:36.402Z,101316.00
2018-12-19T02:27:04.595Z,101312.00
2018-12-19T02:29:32.768Z,101314.00
2018-12-19T02:32:02.946Z,101307.00
2018-12-19T02:34:31.123Z,101303.00
2018-12-19T02:36:59.289Z,101298.00
2018-12-19T02:39:27.523Z,101289.00
2018-12-19T02:41:55.698Z,101292.00
2018-12-19T02:44:23.920Z,101284.00
2018-12-19T02:46:52.083Z,101288.00
2018-12-19T02:49:20.268Z,101279.00
2018-12-19T02:51:48.467Z,101282.00
2018-12-19T02:54:16.668Z,101289.00
2018-12-19T02:56:44.846Z,101303.00
2018-12-19T02:59:13.396Z,101307.00
2018-12-19T03:01:41.571Z,101300.00
2018-12-19T03:04:09.735Z,101298.00
2018-12-19T03:06:37.942Z,101304.00
2018-12-19T03:09:07.643Z,101300.00
2018-12-19T03:11:35.853Z,101286.00
2018-12-19T03:14:04.132Z,101292.00
2018-12-19T03:16:32.413Z,101281.00
2018-12-19T03:19:00.663Z,101284.00
2018-12-19T03:21:28.900Z,101264.00
2018-12-19T03:23:57.069Z,101255.00
2018-12-19T03:26:25.269Z,101263.00
2018-12-19T03:28:53.446Z,101267.00
2018-12-19T03:31:21.640Z,101269.00
2018-12-19T03:33:49.813Z,101274.00
2018-12-19T03:36:18.315Z,101275.00
2018-12-19T03:38:46.487Z,101274.00
2018-12-19T03:41:14.665Z,101280.00
2018-12-19T03:43:42.869Z,101275.00
2018-12-19T03:46:11.076Z,101283.00
2018-12-19T03:48:44.830Z,101291.00
2018-12-19T03:51:13.071Z,101290.00
2018-12-19T03:53:41.277Z,101293.00
2018-12-19T03:56:09.505Z,101298.00
2018-12-19T03:58:37.684Z,101291.00
2018-12-19T04:01:05.935Z,101285.00
2018-12-19T04:03:34.291Z,101290.00
2018-12-19T04:06:02.504Z,101275.00
2018-12-19T04:08:30.753Z,101277.00
2018-12-19T04:10:58.928Z,101276.00
2018-12-19T04:13:27.092Z,101279.00
2018-12-19T04:15:55.310Z,101273.00
2018-12-19T04:18:23.522Z,101273.00
2018-12-19T04:20:51.682Z,101270.00
2018-12-19T04:23:19.904Z,101279.00
2018-12-19T04:25:48.070Z,101271.00
2018-12-19T04:28:16.248Z,101274.00
2018-12-19T04:30:45.058Z,101275.00
2018-12-19T04:33:13.237Z,101279.00
2018-12-19T04:35:41.434Z,101272.00
2018-12-19T04:38:09.679Z,101278.00
2018-12-19T04:40:37.852Z,101280.00
2018-12-19T04:43:06.032Z,101279.00
2018-12-19T04:45:34.230Z,101278.00
2018-12-19T04:48:02.409Z,101267.00
2018-12-19T04:50:30.616Z,101268.00
2018-12-19T04:52:58.829Z,101268.00
2018-12-19T04:55:27.007Z,101270.00
2018-12-19T04:57:55.182Z,101273.00
2018-12-19T05:00:23.423Z,101266.00
2018-12-19T05:02:51.736Z,101276.00
2018-12-19T05:05:19.905Z,101266.00
2018-12-19T05:07:48.454Z,101273.00
2018-12-19T05:10:16.622Z,101280.00
2018-12-19T05:12:44.804Z,101272.00
2018-12-19T05:15:12.991Z,101271.00
2018-12-19T05:17:41.173Z,101265.00
2018-12-19T05:20:12.175Z,101271.00
2018-12-19T05:22:40.376Z,101271.00
2018-12-19T05:25:14.411Z,101257.00
2018-12-19T05:27:42.691Z,101261.00
2018-12-19T05:30:11.509Z,101255.00
2018-12-19T05:32:39.696Z,101259.00
2018-12-19T05:35:08.052Z,101251.00
2018-12-19T05:37:36.229Z,101250.00
2018-12-19T05:40:06.863Z,101246.00
2018-12-19T05:42:35.056Z,101249.00
2018-12-19T05:45:04.279Z,101245.00
2018-12-19T05:47:32.904Z,101246.00
2018-12-19T05:50:01.356Z,101237.00
2018-12-19T05:52:29.877Z,101233.00
2018-12-19T05:54:58.082Z,101232.00
2018-12-19T05:57:26.541Z,101226.00
2018-12-19T05:59:54.721Z,101217.00
2018-12-19T06:02:22.890Z,101224.00
2018-12-19T06:04:51.101Z,101218.00
2018-12-19T06:07:19.285Z,101224.00
2018-12-19T06:09:47.473Z,101220.00
2018-12-19T06:12:15.725Z,101220.00
2018-12-19T06:14:43.917Z,101221.00
2018-12-19T06:17:12.079Z,101223.00
2018-12-19T06:19:40.306Z,101219.00
2018-12-19T06:22:08.532Z,101212.00
2018-12-19T06:24:36.709Z,101201.00
2018-12-19T06:27:04.911Z,101195.00
2018-12-19T06:29:33.076Z,101185.00
2018-12-19T06:32:01.244Z,101193.00
2018-12-19T06:34:29.461Z,101197.00
2018-12-19T06:36:57.633Z,101191.00
2018-12-19T06:39:25.822Z,101185.00
2018-12-19T06:41:54.082Z,101183.00
2018-12-19T06:44:22.249Z,101191.00
2018-12-19T06:46:50.428Z,101191.00
2018-12-19T06:49:18.630Z,101194.00
2018-12-19T06:51:46.800Z,101196.00
2018-12-19T06:54:14.968Z,101194.00
2018-12-19T06:56:43.165Z,101202.00
2018-12-19T06:59:11.338Z,101201.00
2018-12-19T07:01:39.501Z,101198.00
2018-12-19T07:04:08.208Z,101198.00
2018-12-19T07:06:36.372Z,101200.00
2018-12-19T07:09:07.127Z,101194.00
2018-12-19T07:11:35.957Z,101194.00
2018-12-19T07:14:04.276Z,101186.00
2018-12-19T07:16:32.442Z,101186.00
2018-12-19T07:19:00.651Z,101184.00
2018-12-19T07:21:28.830Z,101189.00
2018-12-19T07:23:57.525Z,101183.00
2018-12-19T07:26:25.804Z,101183.00
2018-12-19T07:28:53.981Z,101184.00
2018-12-19T07:31:22.167Z,101182.00
2018-12-19T07:33:50.365Z,101187.00
2018-12-19T07:36:18.536Z,101188.00
2018-12-19T07:38:46.752Z,101186.00
2018-12-19T07:41:14.999Z,101183.00
2018-12-19T07:43:43.200Z,101187.00
2018-12-19T07:46:11.409Z,101185.00
2018-12-19T07:48:39.906Z,101180.00
2018-12-19T07:51:08.261Z,101190.00
2018-12-19T07:53:36.458Z,101183.00
2018-12-19T07:56:05.083Z,101175.00
2018-12-19T07:58:33.309Z,101174.00
2018-12-19T08:01:01.480Z,101181.00
2018-12-19T08:03:29.657Z,101187.00
2018-12-19T08:05:57.904Z,101187.00
2018-12-19T08:08:26.075Z,101189.00
2018-12-19T08:10:54.333Z,101191.00
2018-12-19T08:13:22.584Z,101190.00
2018-12-19T08:15:50.779Z,101186.00
2018-12-19T08:18:18.976Z,101183.00
2018-12-19T08:20:47.184Z,101174.00
2018-12-19T08:23:15.345Z,101176.00
2018-12-19T08:25:43.809Z,101172.00
2018-12-19T08:28:12.119Z,101172.00
2018-12-19T08:30:40.278Z,101177.00
2018-12-19T08:33:08.499Z,101178.00
2018-12-19T08:35:36.680Z,101179.00
2018-12-19T08:38:04.887Z,101178.00
2018-12-19T08:40:33.457Z,101183.00
2018-12-19T08:43:01.685Z,101185.00
2018-12-19T08:45:30.191Z,101200.00
2018-12-19T08:47:58.449Z,101205.00
2018-12-19T08:50:26.621Z,101210.00
2018-12-19T08:52:54.837Z,101194.00
2018-12-19T08:55:23.155Z,101194.00
2018-12-19T08:57:51.324Z,101188.00
2018-12-19T09:00:19.582Z,101174.00
2018-12-19T09:02:47.793Z,101157.00
2018-12-19T09:05:15.971Z,101162.00
2018-12-19T09:07:44.146Z,101164.00
2018-12-19T09:10:12.409Z,101163.00
2018-12-19T09:12:40.895Z,101165.00
2018-12-19T09:15:09.787Z,101164.00
2018-12-19T09:17:37.989Z,101161.00
2018-12-19T09:20:07.049Z,101164.00
2018-12-19T09:22:35.263Z,101151.00
2018-12-19T09:25:03.612Z,101144.00
2018-12-19T09:27:31.788Z,101146.00
2018-12-19T09:30:00.513Z,101140.00
2018-12-19T09:32:28.711Z,101154.00
2018-12-19T09:34:56.882Z,101151.00
2018-12-19T09:37:25.056Z,101143.00
2018-12-19T09:39:53.542Z,101137.00
2018-12-19T09:42:21.721Z,101133.00
2018-12-19T09:44:49.903Z,101132.00
2018-12-19T09:47:18.152Z,101128.00
2018-12-19T09:49:46.320Z,101122.00
2018-12-19T09:52:14.499Z,101120.00
2018-12-19T09:54:42.736Z,101114.00
2018-12-19T09:57:10.902Z,101105.00
2018-12-19T09:59:39.104Z,101104.00
2018-12-19T10:02:07.681Z,101088.00
2018-12-19T10:04:35.882Z,101085.00
2018-12-19T10:07:04.159Z,101084.00
2018-12-19T10:09:32.409Z,101065.00
2018-12-19T10:12:00.580Z,101065.00
2018-12-19T10:14:28.745Z,101067.00
2018-12-19T10:16:56.945Z,101065.00
2018-12-19T10:19:25.124Z,101040.00
2018-12-19T10:21:53.298Z,101054.00
2018-12-19T10:24:23.463Z,101048.00
2018-12-19T10:26:51.617Z,101053.00
2018-12-19T10:29:19.944Z,101064.00
2018-12-19T10:31:48.153Z,101053.00
2018-12-19T10:34:16.320Z,101057.00
2018-12-19T10:36:44.483Z,101037.00
2018-12-19T10:39:13.696Z,101056.00
2018-12-19T10:41:41.868Z,101048.00
2018-12-19T10:44:10.268Z,101040.00
2018-12-19T10:46:38.524Z,101049.00
2018-12-19T10:49:06.686Z,101040.00
2018-12-19T10:51:34.848Z,101045.00
2018-12-19T10:54:03.100Z,101039.00
2018-12-19T10:56:31.277Z,101040.00
2018-12-19T10:58:59.502Z,101021.00
2018-12-19T11:01:27.709Z,101021.00
2018-12-19T11:03:55.965Z,101019.00
2018-12-19T11:06:24.131Z,101022.00
2018-12-19T11:08:52.423Z,101021.00
2018-12-19T11:11:20.756Z,101024.00
2018-12-19T11:13:48.929Z,101018.00
2018-12-19T11:16:17.112Z,101010.00
2018-12-19T11:18:45.287Z,100995.00
2018-12-19T11:21:13.535Z,101002.00
2018-12-19T11:23:41.732Z,100997.00
2018-12-19T11:26:09.896Z,100985.00
2018-12-19T11:28:38.067Z,100986.00
2018-12-19T11:31:06.327Z,100989.00
2018-12-19T11:33:34.497Z,100990.00
2018-12-19T11:36:02.659Z,100976.00
2018-12-19T11:38:30.856Z,100968.00
2018-12-19T11:40:59.963Z,100969.00
2018-12-19T11:43:28.157Z,100978.00
2018-12-19T11:45:56.422Z,100969.00
2018-12-19T11:48:24.710Z,100969.00
2018-12-19T11:50:52.875Z,100978.00
2018-12-19T11:53:21.082Z,100973.00
2018-12-19T11:55:49.315Z,100978.00
2018-12-19T11:58:17.487Z,100979.00
2018-12-19T12:00:45.676Z,100976.00
2018-12-19T12:03:13.847Z,100976.00
2018-12-19T12:05:42.007Z,100972.00
2018-12-19T12:08:10.204Z,100993.00
2018-12-19T12:10:38.440Z,100990.00
2018-12-19T12:13:06.673Z,100985.00
2018-12-19T12:15:34.878Z,100974.00
2018-12-19T12:18:03.061Z,100978.00
2018-12-19T12:20:31.275Z,100972.00
2018-12-19T12:22:59.474Z,100976.00
2018-12-19T12:25:27.648Z,100979.00
2018-12-19T12:27:55.811Z,100977.00
2018-12-19T12:30:24.012Z,100970.00
2018-12-19T12:32:52.787Z,100964.00
2018-12-19T12:35:20.960Z,100963.00
2018-12-19T12:37:49.164Z,100957.00
2018-12-19T12:40:17.342Z,100954.00
2018-12-19T12:42:45.519Z,100934.00
2018-12-19T12:45:13.813Z,100937.00
2018-12-19T12:47:42.056Z,100935.00
2018-12-19T12:50:10.349Z,100920.00
2018-12-19T12:52:38.573Z,100934.00
2018-12-19T12:55:06.940Z,100930.00
2018-12-19T12:57:35.099Z,100923.00
2018-12-19T13:00:03.656Z,100929.00
2018-12-19T13:02:32.022Z,100918.00
2018-12-19T13:05:00.830Z,100914.00
2018-12-19T13:07:29.180Z,100914.00
2018-12-19T13:09:57.356Z,100912.00
2018-12-19T13:12:25.538Z,100899.00
2018-12-19T13:14:53.709Z,100897.00
2018-12-19T13:17:21.929Z,100899.00
2018-12-19T13:19:50.096Z,100897.00
2018-12-19T13:22:18.277Z,100901.00
2018-12-19T13:24:46.517Z,100890.00
2018-12-19T13:27:14.692Z,100896.00
2018-12-19T13:29:43.099Z,100890.00
2018-12-19T13:32:11.604Z,100878.00
2018-12-19T13:34:39.784Z,100881.00
2018-12-19T13:37:08.033Z,100889.00
2018-12-19T13:39:36.226Z,100895.00
2018-12-19T13:42:05.729Z,100899.00
2018-12-19T13:44:34.204Z,100893.00
2018-12-19T13:47:02.476Z,100886.00
2018-12-19T13:49:30.658Z,100884.00
2018-12-19T13:51:58.919Z,100882.00
2018-12-19T13:54:27.091Z,100889.00
2018-12-19T13:56:55.299Z,100874.00
2018-12-19T13:59:23.498Z,100867.00
2018-12-19T14:01:51.678Z,100877.00
2018-12-19T14:04:20.112Z,100878.00
2018-12-19T14:06:48.351Z,100865.00
2018-12-19T14:09:16.709Z,100856.00
2018-12-19T14:11:44.869Z,100863.00
2018-12-19T14:14:13.073Z,100869.00
2018-12-19T14:16:41.873Z,100876.00
2018-12-19T14:19:10.228Z,100877.00
2018-12-19T14:21:38.403Z,100878.00
2018-12-19T14:24:06.605Z,100876.00
2018-12-19T14:26:34.838Z,100870.00
2018-12-19T14:29:03.187Z,100875.00
2018-12-19T14:31:31.394Z,100879.00
2018-12-19T14:33:59.566Z,100884.00
2018-12-19T14:36:27.857Z,100887.00
2018-12-19T14:42:05.595Z,100874.00
2018-12-19T14:44:33.758Z,100886.00
2018-12-19T14:47:01.935Z,100882.00
2018-12-19T14:49:30.161Z,100890.00
2018-12-19T14:51:58.363Z,100884.00
2018-12-19T14:54:26.546Z,100886.00
2018-12-19T14:56:54.793Z,100877.00
2018-12-19T14:59:23.004Z,100883.00
2018-12-19T15:01:51.204Z,100886.00
2018-12-19T15:04:19.372Z,100885.00
2018-12-19T15:06:47.568Z,100887.00
2018-12-19T15:09:15.750Z,100888.00
2018-12-19T15:11:44.001Z,100887.00
2018-12-19T15:14:12.180Z,100898.00
2018-12-19T15:16:40.348Z,100898.00
2018-12-19T15:19:08.550Z,100903.00
2018-12-19T15:21:36.764Z,100895.00
2018-12-19T15:24:05.036Z,100892.00
2018-12-19T15:26:33.362Z,100884.00
2018-12-19T15:29:01.633Z,100884.00
2018-12-19T15:31:29.940Z,100881.00
2018-12-19T15:33:58.147Z,100880.00
2018-12-19T15:36:26.644Z,100888.00
2018-12-19T15:38:54.854Z,100894.00
2018-12-19T15:41:23.044Z,100881.00
2018-12-19T15:43:51.259Z,100871.00
2018-12-19T15:46:19.420Z,100875.00
2018-12-19T15:48:47.634Z,100870.00
2018-12-19T15:51:15.834Z,100881.00
2018-12-19T15:53:44.027Z,100864.00
2018-12-19T15:56:12.265Z,100871.00
2018-12-19T15:58:40.478Z,100875.00
2018-12-19T16:01:08.654Z,100870.00
2018-12-19T16:03:36.838Z,100870.00
2018-12-19T16:06:05.035Z,100867.00
2018-12-19T16:08:33.937Z,100868.00
2018-12-19T16:11:02.135Z,100859.00
2018-12-19T16:13:30.362Z,100864.00
2018-12-19T16:15:58.868Z,100865.00
2018-12-19T16:18:27.044Z,100859.00
2018-12-19T16:20:55.236Z,100860.00
2018-12-19T16:23:23.425Z,100856.00
2018-12-19T16:25:51.622Z,100859.00
2018-12-19T16:28:19.870Z,100853.00
2018-12-19T16:30:48.057Z,100849.00
2018-12-19T16:33:16.278Z,100851.00
2018-12-19T16:35:44.491Z,100855.00
2018-12-19T16:38:12.657Z,100858.00
2018-12-19T16:40:40.851Z,100850.00
2018-12-19T16:43:09.015Z,100849.00
2018-12-19T16:45:37.207Z,100839.00
2018-12-19T16:48:05.451Z,100835.00
2018-12-19T16:50:33.686Z,100830.00
2018-12-19T16:53:01.852Z,100831.00
2018-12-19T16:55:30.024Z,100833.00
2018-12-19T16:57:59.169Z,100832.00
2018-12-19T17:00:27.338Z,100827.00
2018-12-19T17:02:55.541Z,100831.00
2018-12-19T17:05:23.715Z,100837.00
2018-12-19T17:07:52.238Z,100833.00
2018-12-19T17:10:20.425Z,100828.00
2018-12-19T17:12:52.744Z,100832.00
2018-12-19T17:15:18.996Z,100832.00
2018-12-19T17:17:47.173Z,100824.00
2018-12-19T17:20:16.132Z,100812.00
2018-12-19T17:22:44.527Z,100813.00
2018-12-19T17:25:12.781Z,100812.00
2018-12-19T17:27:41.792Z,100808.00
2018-12-19T17:30:09.995Z,100806.00
2018-12-19T17:32:38.303Z,100806.00
2018-12-19T17:35:06.624Z,100799.00
2018-12-19T17:37:34.792Z,100801.00
2018-12-19T17:40:03.466Z,100797.00
2018-12-19T17:42:31.689Z,100795.00
2018-12-19T17:44:59.854Z,100803.00
2018-12-19T17:47:28.032Z,100802.00
2018-12-19T17:49:56.242Z,100799.00
2018-12-19T17:52:24.412Z,100785.00
2018-12-19T17:54:52.613Z,100790.00
2018-12-19T17:57:20.881Z,100796.00
2018-12-19T17:59:49.072Z,100797.00
2018-12-19T18:02:17.293Z,100797.00
2018-12-19T18:04:45.543Z,100801.00
2018-12-19T18:07:13.801Z,100801.00
2018-12-19T18:09:42.014Z,100796.00
2018-12-19T18:12:10.521Z,100800.00
2018-12-19T18:14:38.698Z,100798.00
2018-12-19T18:17:06.881Z,100803.00
2018-12-19T18:19:36.376Z,100808.00
2018-12-19T18:22:04.607Z,100807.00
2018-12-19T18:24:32.784Z,100798.00
2018-12-19T18:27:00.988Z,100806.00
2018-12-19T18:29:29.163Z,100802.00
2018-12-19T18:31:57.338Z,100793.00
2018-12-19T18:34:25.571Z,100791.00
2018-12-19T18:36:53.809Z,100791.00
2018-12-19T18:39:26.162Z,100776.00
2018-12-19T18:41:52.266Z,100778.00
2018-12-19T18:44:20.443Z,100785.00
2018-12-19T18:46:48.721Z,100775.00
2018-12-19T18:49:16.907Z,100774.00
2018-12-19T18:51:45.085Z,100774.00
2018-12-19T18:54:13.289Z,100786.00
2018-12-19T18:56:41.460Z,100782.00
2018-12-19T18:59:09.732Z,100783.00
2018-12-19T19:01:38.014Z,100786.00
2018-12-19T19:04:06.245Z,100776.00
2018-12-19T19:06:34.561Z,100785.00
2018-12-19T19:09:02.886Z,100793.00
2018-12-19T19:11:31.160Z,100789.00
2018-12-19T19:13:59.366Z,100791.00
2018-12-19T19:16:27.546Z,100790.00
2018-12-19T19:18:55.750Z,100777.00
2018-12-19T19:21:23.940Z,100777.00
2018-12-19T19:23:52.116Z,100774.00
2018-12-19T19:26:20.315Z,100767.00
2018-12-19T19:28:48.548Z,100767.00
2018-12-19T19:31:16.808Z,100766.00
2018-12-19T19:33:45.027Z,100764.00
2018-12-19T19:36:13.239Z,100775.00
2018-12-19T19:38:41.441Z,100772.00
2018-12-19T19:41:09.743Z,100768.00
2018-12-19T19:43:37.952Z,100776.00
2018-12-19T19:46:06.111Z,100776.00
2018-12-19T19:48:34.295Z,100762.00
2018-12-19T19:51:02.469Z,100765.00
2018-12-19T19:53:30.698Z,100761.00
2018-12-19T19:55:58.868Z,100751.00
2018-12-19T19:58:27.026Z,100746.00
2018-12-19T20:00:55.264Z,100754.00
2018-12-19T20:03:23.502Z,100749.00
2018-12-19T20:05:52.059Z,100749.00
2018-12-19T20:08:20.270Z,100739.00
2018-12-19T20:10:48.635Z,100741.00
2018-12-19T20:13:16.824Z,100736.00
2018-12-19T20:15:45.028Z,100742.00
2018-12-19T20:18:13.655Z,100745.00
2018-12-19T20:20:42.026Z,100748.00
2018-12-19T20:23:10.205Z,100744.00
2018-12-19T20:25:39.004Z,100733.00
2018-12-19T20:28:07.227Z,100747.00
2018-12-19T20:30:35.461Z,100742.00
2018-12-19T20:33:03.694Z,100743.00
2018-12-19T20:35:32.221Z,100744.00
2018-12-19T20:38:00.389Z,100738.00
2018-12-19T20:40:28.607Z,100739.00
2018-12-19T20:42:57.005Z,100734.00
2018-12-19T20:45:25.735Z,100732.00
2018-12-19T20:47:53.950Z,100743.00
2018-12-19T20:50:22.132Z,100739.00
2018-12-19T20:52:50.325Z,100748.00
2018-12-19T20:55:20.027Z,100752.00
2018-12-19T20:57:48.344Z,100748.00
2018-12-19T21:00:16.613Z,100754.00
2018-12-19T21:02:44.798Z,100747.00
2018-12-19T21:05:13.101Z,100727.00
2018-12-19T21:07:41.273Z,100719.00
2018-12-19T21:10:09.480Z,100724.00
2018-12-19T21:12:37.679Z,100734.00
2018-12-19T21:15:08.030Z,100739.00
2018-12-19T21:17:41.893Z,100740.00
2018-12-19T21:20:10.170Z,100727.00
2018-12-19T21:22:38.380Z,100730.00
2018-12-19T21:25:06.645Z,100737.00
2018-12-19T21:27:34.822Z,100740.00
2018-12-19T21:30:03.181Z,100731.00
2018-12-19T21:32:31.355Z,100731.00
2018-12-19T21:34:59.591Z,100745.00
2018-12-19T21:37:27.769Z,100737.00
2018-12-19T21:39:55.967Z,100740.00
2018-12-19T21:42:24.217Z,100740.00
2018-12-19T21:44:52.558Z,100740.00
2018-12-19T21:47:20.871Z,100753.00
2018-12-19T21:49:49.774Z,100756.00
2018-12-19T21:52:17.962Z,100746.00
2018-12-19T21:54:46.137Z,100751.00
2018-12-19T21:57:14.344Z,100748.00
2018-12-19T21:59:42.557Z,100743.00
2018-12-19T22:02:10.783Z,100750.00
2018-12-19T22:04:38.956Z,100743.00
2018-12-19T22:07:07.172Z,100749.00
2018-12-19T22:09:35.394Z,100745.00
2018-12-19T22:12:03.574Z,100751.00
2018-12-19T22:14:31.861Z,100753.00
2018-12-19T22:17:05.810Z,100750.00
2018-12-19T22:19:34.067Z,100758.00
2018-12-19T22:22:02.399Z,100763.00
2018-12-19T22:24:30.733Z,100758.00
2018-12-19T22:26:58.917Z,100766.00
2018-12-19T22:29:27.121Z,100759.00
2018-12-19T22:31:55.306Z,100743.00
2018-12-19T22:34:23.603Z,100763.00
2018-12-19T22:36:51.800Z,100752.00
2018-12-19T22:39:20.078Z,100735.00
2018-12-19T22:41:48.393Z,100738.00
2018-12-19T22:44:16.596Z,100730.00
2018-12-19T22:46:44.833Z,100727.00
2018-12-19T22:49:13.294Z,100729.00
2018-12-19T22:51:41.589Z,100728.00
2018-12-19T22:54:09.931Z,100724.00
2018-12-19T22:56:38.193Z,100729.00
2018-12-19T22:59:06.394Z,100719.00
2018-12-19T23:01:40.583Z,100720.00
2018-12-19T23:04:09.022Z,100717.00
2018-12-19T23:06:37.328Z,100705.00
2018-12-19T23:09:06.649Z,100704.00
2018-12-19T23:11:34.909Z,100703.00
2018-12-19T23:14:03.207Z,100703.00
2018-12-19T23:16:31.605Z,100699.00
2018-12-19T23:18:59.810Z,100706.00
2018-12-19T23:21:28.112Z,100708.00
2018-12-19T23:23:56.277Z,100698.00
2018-12-19T23:26:24.647Z,100704.00
2018-12-19T23:28:54.788Z,100697.00
2018-12-19T23:31:22.994Z,100692.00
2018-12-19T23:33:51.963Z,100700.00
2018-12-19T23:36:20.191Z,100692.00
2018-12-19T23:38:48.402Z,100689.00
2018-12-19T23:41:16.675Z,100687.00
2018-12-19T23:43:45.087Z,100680.00
2018-12-19T23:52:07.745Z,100694.00
2018-12-19T23:54:35.963Z,100687.00
2018-12-19T23:57:04.432Z,100690.00
2018-12-19T23:59:32.873Z,100685.00
